03I weather

CLOSED Clarks Dream Strip
Circleville, Ohio, United States

Public forecast

Using degrees Fahrenheit for public forecast. Weather courtesy of forecast.io.

Closest aviation weather report (METAR) to Clarks Dream Strip

Closest report is Rickenbacker International Airport, 11.0 nm (20.4 km) NNE. Retrieved 2020/07/14 01:55 UTC (26 minutes ago):

KLCK 140155Z AUTO 04004KT 10SM CLR 24/15 A2997 RMK AO2 T02350151

Closest aviation forecast (TAF) to Clarks Dream Strip

Closest forecast is Rickenbacker International Airport, 11.0 nm (20.4 km) NNE. Retrieved 2020-07-14 00:33 UTC (2 hours ago):

TAF KLCK 132329Z 1400/1424 VRB04KT P6SM SCT060 TEMPO 1400/1401 BKN060 FM140300 VRB03KT P6SM SKC FM141600 09005KT P6SM SCT040